Time;durP1;ratioP1;P1;durP2;ratioP2;P2;SDS_P1;SDS_P2;PMS_P1;PMS_P2;Temp;Humidity;BMP_temperature;BMP_pressure;BME280_temperature;BME280_humidity;BME280_pressure;Samples;Min_cycle;Max_cycle;Signal;HPM_P1;HPM_P2
2023/05/31 00:01:02;;;;;;;7.13;4.55;;;;;;;8.96;100.00;102839.00;5095176;28;20107;-82
2023/05/31 00:03:28;;;;;;;6.07;3.95;;;;;;;9.00;100.00;102848.53;5077043;28;20067;-80
2023/05/31 00:05:53;;;;;;;7.38;4.25;;;;;;;9.10;100.00;102848.91;5095151;28;20051;-81
2023/05/31 00:08:19;;;;;;;8.88;4.43;;;;;;;9.21;100.00;102847.47;5077208;28;20040;-81
2023/05/31 00:10:44;;;;;;;8.82;4.35;;;;;;;9.25;100.00;102841.06;5094690;28;20491;-81
2023/05/31 00:13:10;;;;;;;5.68;3.83;;;;;;;9.26;100.00;102835.69;5076820;28;20471;-80
2023/05/31 00:15:35;;;;;;;6.53;3.85;;;;;;;9.28;100.00;102836.44;5094898;28;20101;-80
2023/05/31 00:18:01;;;;;;;5.78;3.92;;;;;;;9.27;100.00;102847.16;5094811;28;20111;-80
2023/05/31 00:20:26;;;;;;;5.85;3.60;;;;;;;9.24;100.00;102842.88;5095143;28;20051;-80
2023/05/31 00:22:51;;;;;;;6.60;3.90;;;;;;;9.27;100.00;102848.03;5077077;28;20131;-80
2023/05/31 00:25:17;;;;;;;11.20;4.43;;;;;;;9.28;100.00;102846.22;5060352;28;20371;-81
2023/05/31 00:27:42;;;;;;;4.43;3.58;;;;;;;9.27;100.00;102844.50;5095310;28;20032;-82
2023/05/31 00:30:08;;;;;;;7.82;4.18;;;;;;;9.24;100.00;102837.56;5077006;28;20427;-81
2023/05/31 00:32:34;;;;;;;8.77;3.92;;;;;;;9.18;100.00;102841.41;5095657;28;20456;-82
2023/05/31 00:35:03;;;;;;;10.00;4.30;;;;;;;9.18;100.00;102843.19;5095301;28;20051;-83
2023/05/31 00:37:28;;;;;;;9.82;4.82;;;;;;;9.13;100.00;102842.59;5095382;28;20035;-81
2023/05/31 00:39:53;;;;;;;7.43;4.43;;;;;;;9.12;100.00;102841.72;5094743;28;20024;-80
2023/05/31 00:42:19;;;;;;;7.82;4.13;;;;;;;9.05;100.00;102837.69;5094864;28;20073;-81
2023/05/31 00:44:44;;;;;;;7.13;4.35;;;;;;;9.00;100.00;102835.25;5094619;28;20035;-81
2023/05/31 00:47:10;;;;;;;14.35;4.38;;;;;;;8.95;100.00;102841.75;5094408;28;20545;-82
2023/05/31 00:49:35;;;;;;;8.05;4.15;;;;;;;8.87;100.00;102835.97;5094485;28;20117;-81
2023/05/31 00:52:01;;;;;;;8.85;3.90;;;;;;;8.82;100.00;102836.19;5076033;28;20357;-81
2023/05/31 00:54:27;;;;;;;7.85;4.63;;;;;;;8.77;100.00;102840.91;5095043;28;20145;-80
2023/05/31 00:56:52;;;;;;;7.50;4.15;;;;;;;8.73;100.00;102840.22;5076319;28;20368;-81
2023/05/31 00:59:18;;;;;;;8.10;3.97;;;;;;;8.68;100.00;102844.88;5094533;28;20456;-81
2023/05/31 01:01:43;;;;;;;5.65;3.88;;;;;;;8.60;100.00;102839.13;5076106;28;20035;-81
2023/05/31 01:04:10;;;;;;;8.10;4.18;;;;;;;8.55;100.00;102849.09;5076565;28;20040;-81
2023/05/31 01:06:35;;;;;;;6.55;4.50;;;;;;;8.51;100.00;102850.16;5095058;28;20038;-81
2023/05/31 01:09:07;;;;;;;7.28;4.20;;;;;;;8.45;100.00;102838.94;5094222;28;20220;-81
2023/05/31 01:11:45;;;;;;;8.25;4.53;;;;;;;8.44;100.00;102844.31;5077074;28;20098;-81
2023/05/31 01:14:40;;;;;;;10.48;4.70;;;;;;;8.39;100.00;102841.88;5093919;28;20036;-80
2023/05/31 01:17:22;;;;;;;10.52;4.57;;;;;;;8.34;100.00;102841.22;5094188;28;20027;-80
2023/05/31 01:20:11;;;;;;;;;;;;;;;8.30;100.00;102834.38;5094189;28;20028;-81
2023/05/31 01:23:01;;;;;;;5.30;4.07;;;;;;;8.22;100.00;102831.22;5094482;28;19912;-82
2023/05/31 01:25:27;;;;;;;7.10;5.00;;;;;;;8.18;100.00;102832.28;5094123;28;20028;-80
2023/05/31 01:27:55;;;;;;;8.43;4.68;;;;;;;8.13;100.00;102843.13;5094053;28;20026;-80
2023/05/31 01:30:22;;;;;;;9.60;4.75;;;;;;;8.08;100.00;102831.91;5094136;28;20036;-82
2023/05/31 01:32:49;;;;;;;7.07;5.07;;;;;;;8.07;100.00;102838.97;5094178;28;20120;-81
2023/05/31 01:35:15;;;;;;;8.60;4.60;;;;;;;8.04;100.00;102843.56;5093640;28;20340;-80
2023/05/31 01:37:40;;;;;;;12.73;5.10;;;;;;;8.01;100.00;102833.13;5093912;28;20028;-81
2023/05/31 01:40:07;;;;;;;9.38;4.80;;;;;;;7.98;100.00;102839.41;5094277;28;20031;-80
2023/05/31 01:42:32;;;;;;;7.82;5.13;;;;;;;7.94;100.00;102840.50;5075306;28;20527;-80
2023/05/31 01:44:59;;;;;;;11.05;5.55;;;;;;;7.91;100.00;102840.63;5094240;28;20067;-81
2023/05/31 01:47:24;;;;;;;9.00;5.13;;;;;;;7.85;100.00;102843.56;5093471;28;20024;-82
2023/05/31 01:49:50;;;;;;;10.80;5.43;;;;;;;7.81;100.00;102845.53;5093548;28;20048;-81
2023/05/31 01:52:20;;;;;;;11.95;5.35;;;;;;;7.77;100.00;102839.50;5094007;28;20111;-80
2023/05/31 01:54:45;;;;;;;10.27;5.40;;;;;;;7.79;100.00;102839.41;5093563;28;20039;-82
2023/05/31 01:57:12;;;;;;;8.80;5.53;;;;;;;7.77;100.00;102843.94;5093743;28;20072;-81
2023/05/31 01:59:39;;;;;;;10.70;5.70;;;;;;;7.73;100.00;102840.59;5075212;28;20438;-81
2023/05/31 02:02:05;;;;;;;9.77;5.72;;;;;;;7.71;100.00;102847.72;5093636;28;20043;-81
2023/05/31 02:04:31;;;;;;;10.38;5.78;;;;;;;7.68;100.00;102847.03;5093311;28;20032;-81
2023/05/31 02:06:57;;;;;;;10.43;6.00;;;;;;;7.65;100.00;102850.66;5075551;28;20040;-80
2023/05/31 02:09:23;;;;;;;10.73;5.85;;;;;;;7.64;100.00;102837.50;5092439;28;20043;-80
2023/05/31 02:11:49;;;;;;;10.63;6.10;;;;;;;7.61;100.00;102842.94;5093217;28;20036;-80
2023/05/31 02:14:15;;;;;;;9.75;6.03;;;;;;;7.57;100.00;102831.63;5092787;28;20032;-81
2023/05/31 02:16:40;;;;;;;9.52;5.70;;;;;;;7.55;100.00;102838.78;5093478;28;20451;-81
2023/05/31 02:19:05;;;;;;;12.10;5.95;;;;;;;7.54;100.00;102842.38;5074894;28;20020;-82
2023/05/31 02:21:37;;;;;;;11.98;6.32;;;;;;;7.52;100.00;102844.22;5092959;28;20030;-81
2023/05/31 02:24:02;;;;;;;12.85;6.68;;;;;;;7.54;100.00;102837.94;5074681;28;20039;-80
2023/05/31 02:26:28;;;;;;;11.52;6.50;;;;;;;7.56;100.00;102840.50;5074883;28;20364;-82
2023/05/31 02:28:53;;;;;;;15.07;7.00;;;;;;;7.56;100.00;102835.22;5074864;28;20439;-80
2023/05/31 02:31:19;;;;;;;17.40;6.82;;;;;;;7.59;100.00;102838.56;5092749;28;20032;-80
2023/05/31 02:33:45;;;;;;;14.98;7.10;;;;;;;7.61;100.00;102841.13;5092787;28;20034;-80
2023/05/31 02:36:11;;;;;;;16.67;7.30;;;;;;;7.63;100.00;102836.66;5075196;28;20036;-80
2023/05/31 02:38:37;;;;;;;15.68;7.53;;;;;;;7.66;100.00;102835.63;5092644;28;20061;-81
2023/05/31 02:41:02;;;;;;;13.35;7.05;;;;;;;7.69;100.00;102825.75;5074191;28;20040;-81
2023/05/31 02:43:28;;;;;;;14.80;7.57;;;;;;;7.71;100.00;102829.19;5074403;28;20032;-81
2023/05/31 02:45:53;;;;;;;14.55;6.88;;;;;;;7.71;100.00;102833.63;5092683;28;20040;-81
2023/05/31 02:48:18;;;;;;;11.50;6.60;;;;;;;7.68;100.00;102829.31;5092218;28;20035;-81
2023/05/31 02:50:44;;;;;;;11.50;6.68;;;;;;;7.66;100.00;102833.84;5092894;28;20094;-80
2023/05/31 02:53:09;;;;;;;17.70;7.22;;;;;;;7.59;100.00;102827.13;5092667;28;20456;-81
2023/05/31 02:55:37;;;;;;;16.83;7.75;;;;;;;7.59;100.00;102829.75;5092319;28;20043;-81
2023/05/31 02:58:02;;;;;;;16.67;7.13;;;;;;;7.53;100.00;102827.41;5092521;28;20060;-80
2023/05/31 03:00:28;;;;;;;14.20;7.00;;;;;;;7.50;100.00;102832.84;5092578;28;20067;-80
2023/05/31 03:02:54;;;;;;;13.73;7.05;;;;;;;7.46;100.00;102831.25;5092749;28;20033;-82
2023/05/31 03:05:20;;;;;;;16.25;8.18;;;;;;;7.41;100.00;102827.03;5092394;28;20425;-80
2023/05/31 03:07:46;;;;;;;13.63;6.88;;;;;;;7.39;100.00;102825.41;5092588;28;20036;-80
2023/05/31 03:10:12;;;;;;;12.50;6.90;;;;;;;7.33;100.00;102825.66;5073804;28;20031;-81
2023/05/31 03:12:37;;;;;;;11.95;6.72;;;;;;;7.29;100.00;102838.19;5092433;28;20028;-80
2023/05/31 03:15:04;;;;;;;17.10;7.32;;;;;;;7.28;100.00;102835.59;5092605;28;20082;-81
2023/05/31 03:17:29;;;;;;;11.75;6.55;;;;;;;7.26;100.00;102835.66;5058194;28;20028;-80
2023/05/31 03:19:55;;;;;;;13.38;7.32;;;;;;;7.24;100.00;102830.44;5092160;28;20111;-80
2023/05/31 03:22:22;;;;;;;13.07;7.25;;;;;;;7.22;100.00;102826.13;5096020;28;20028;-80
2023/05/31 03:24:47;;;;;;;14.30;7.05;;;;;;;7.23;100.00;102823.41;5096144;28;20043;-80
2023/05/31 03:27:13;;;;;;;13.68;6.80;;;;;;;7.25;100.00;102831.28;5096116;28;20032;-81
2023/05/31 03:29:41;;;;;;;15.00;7.22;;;;;;;7.24;100.00;102822.50;5096277;28;20111;-81
2023/05/31 03:32:07;;;;;;;19.02;6.88;;;;;;;7.23;100.00;102827.88;5077745;28;20040;-81
2023/05/31 03:34:32;;;;;;;15.85;6.85;;;;;;;7.20;100.00;102820.91;5095931;28;20081;-80
2023/05/31 03:36:58;;;;;;;16.00;6.65;;;;;;;7.21;100.00;102824.41;5095887;28;20167;-80
2023/05/31 03:39:23;;;;;;;14.88;6.60;;;;;;;7.22;100.00;102823.47;5077821;28;20032;-80
2023/05/31 03:41:49;;;;;;;18.70;7.38;;;;;;;7.21;100.00;102820.00;5096107;28;20121;-80
2023/05/31 03:44:14;;;;;;;14.38;7.05;;;;;;;7.23;100.00;102820.78;5078052;28;20054;-80
2023/05/31 03:46:40;;;;;;;18.33;7.63;;;;;;;7.28;100.00;102825.00;5095540;28;20042;-80
2023/05/31 03:49:06;;;;;;;17.90;7.13;;;;;;;7.33;100.00;102831.81;5095526;28;20094;-80
2023/05/31 03:51:32;;;;;;;15.73;7.97;;;;;;;7.36;100.00;102826.38;5095770;28;20047;-81
2023/05/31 03:53:57;;;;;;;16.17;7.07;;;;;;;7.39;100.00;102841.28;5095690;28;20428;-81
2023/05/31 03:56:23;;;;;;;17.55;7.57;;;;;;;7.41;100.00;102840.25;5095978;28;20221;-79
2023/05/31 03:58:48;;;;;;;15.25;7.32;;;;;;;7.42;100.00;102830.56;5095568;28;20068;-79
2023/05/31 04:01:13;;;;;;;13.52;6.45;;;;;;;7.43;100.00;102834.03;5096277;28;20540;-79
2023/05/31 04:03:39;;;;;;;17.50;6.90;;;;;;;7.46;100.00;102833.91;5095928;28;20129;-81
2023/05/31 04:06:04;;;;;;;17.00;8.02;;;;;;;7.48;100.00;102837.34;5096193;28;20035;-80
2023/05/31 04:08:30;;;;;;;14.55;7.30;;;;;;;7.52;100.00;102838.91;5077578;28;20051;-81
2023/05/31 04:10:56;;;;;;;14.20;7.25;;;;;;;7.52;100.00;102839.75;5095431;28;20039;-80
2023/05/31 04:13:21;;;;;;;15.43;6.78;;;;;;;7.53;100.00;102836.19;5077491;28;20039;-80
2023/05/31 04:15:46;;;;;;;16.27;7.15;;;;;;;7.58;100.00;102838.63;5095317;28;20119;-80
2023/05/31 04:18:12;;;;;;;19.73;7.55;;;;;;;7.62;100.00;102839.38;5076780;28;20128;-80
2023/05/31 04:20:37;;;;;;;17.75;8.30;;;;;;;7.67;100.00;102840.00;5094953;28;20032;-80
2023/05/31 04:23:03;;;;;;;15.05;7.60;;;;;;;7.71;100.00;102841.59;5094960;28;20035;-80
2023/05/31 04:25:28;;;;;;;15.30;7.35;;;;;;;7.76;100.00;102844.88;5076988;28;20029;-79
2023/05/31 04:27:54;;;;;;;23.23;8.50;;;;;;;7.82;100.00;102838.44;5076705;28;20032;-80
2023/05/31 04:30:20;;;;;;;20.77;8.65;;;;;;;7.89;100.00;102845.16;5077270;28;20085;-81
2023/05/31 04:32:52;;;;;;;15.98;7.45;;;;;;;7.94;100.00;102849.31;5094294;28;20041;-79
2023/05/31 04:35:17;;;;;;;;;;;;;;;8.00;100.00;102850.81;5096106;28;20044;-79
2023/05/31 04:37:43;;;;;;;14.75;7.50;;;;;;;8.05;100.00;102846.16;5095277;28;19946;-80
2023/05/31 04:40:09;;;;;;;15.80;7.85;;;;;;;8.10;100.00;102843.28;5095992;28;20097;-79
2023/05/31 04:42:36;;;;;;;18.65;7.70;;;;;;;8.18;100.00;102853.50;5078293;28;20036;-81
2023/05/31 04:45:04;;;;;;;13.65;6.97;;;;;;;8.23;100.00;102848.84;5104977;28;20043;-79
2023/05/31 04:47:32;;;;;;;20.95;7.63;;;;;;;8.29;100.00;102846.75;5104084;28;20451;-80
2023/05/31 04:49:59;;;;;;;16.60;7.75;;;;;;;8.40;100.00;102845.38;5095442;28;20173;-79
2023/05/31 04:52:29;;;;;;;21.08;8.95;;;;;;;8.47;100.00;102846.81;5094749;28;20148;-79
2023/05/31 04:54:55;;;;;;;18.00;8.05;;;;;;;8.53;100.00;102843.84;5094842;28;20036;-80
2023/05/31 04:57:22;;;;;;;23.30;7.35;;;;;;;8.57;100.00;102840.13;5094715;28;20089;-79
2023/05/31 04:59:47;;;;;;;19.20;8.23;;;;;;;8.64;100.00;102845.97;5094207;28;20064;-79
2023/05/31 05:02:13;;;;;;;18.83;8.20;;;;;;;8.72;100.00;102840.25;5093701;28;20440;-80
2023/05/31 05:04:38;;;;;;;18.50;9.07;;;;;;;8.82;100.00;102844.16;5094346;28;20028;-80
2023/05/31 05:07:04;;;;;;;19.55;8.88;;;;;;;8.91;100.00;102840.19;5094129;28;20036;-81
2023/05/31 05:09:30;;;;;;;18.75;8.55;;;;;;;8.98;100.00;102841.59;5094166;28;20149;-80
2023/05/31 05:11:56;;;;;;;16.85;8.88;;;;;;;9.07;100.00;102845.56;5094318;28;20028;-80
2023/05/31 05:14:21;;;;;;;19.35;8.73;;;;;;;9.14;100.00;102842.50;5076070;28;20028;-80
2023/05/31 05:16:47;;;;;;;17.88;8.38;;;;;;;9.21;100.00;102848.38;5093835;28;20055;-80
2023/05/31 05:19:12;;;;;;;20.48;8.55;;;;;;;9.26;100.00;102842.81;5093661;28;20035;-80
2023/05/31 05:21:37;;;;;;;17.98;8.10;;;;;;;9.31;100.00;102846.06;5093838;28;20096;-79
2023/05/31 05:24:03;;;;;;;15.05;8.13;;;;;;;9.36;100.00;102846.69;5093827;28;20060;-81
2023/05/31 05:26:28;;;;;;;13.75;7.97;;;;;;;9.42;100.00;102853.44;5093671;28;20028;-80
2023/05/31 05:28:53;;;;;;;17.42;8.07;;;;;;;9.49;100.00;102863.69;5093453;28;20508;-81
2023/05/31 05:31:19;;;;;;;17.65;7.60;;;;;;;9.56;100.00;102860.69;5076004;28;20059;-79
2023/05/31 05:33:45;;;;;;;14.02;7.30;;;;;;;9.61;100.00;102862.13;5093785;28;20468;-79
2023/05/31 05:36:10;;;;;;;14.95;8.15;;;;;;;9.68;100.00;102857.38;5093706;28;20032;-80
2023/05/31 05:38:36;;;;;;;14.70;7.43;;;;;;;9.76;100.00;102857.78;5093212;28;20329;-81
2023/05/31 05:41:01;;;;;;;17.33;7.20;;;;;;;9.81;100.00;102854.91;5093455;28;20032;-80
2023/05/31 05:43:28;;;;;;;13.93;6.85;;;;;;;9.92;100.00;102856.97;5075073;28;20036;-80
2023/05/31 05:45:54;;;;;;;13.13;7.45;;;;;;;10.00;100.00;102866.22;5093574;28;20326;-79
2023/05/31 05:48:19;;;;;;;11.60;7.40;;;;;;;10.11;100.00;102862.13;5093157;28;20547;-76
2023/05/31 05:50:45;;;;;;;13.00;7.13;;;;;;;10.22;100.00;102865.00;5093229;28;20131;-78
2023/05/31 05:53:10;;;;;;;14.73;7.57;;;;;;;10.36;100.00;102865.13;5075022;28;20032;-80
2023/05/31 05:55:36;;;;;;;10.93;7.13;;;;;;;10.51;100.00;102865.16;5093322;28;20040;-78
2023/05/31 05:58:02;;;;;;;15.13;7.40;;;;;;;10.66;100.00;102861.63;5092737;28;20056;-78
2023/05/31 06:00:28;;;;;;;17.30;8.07;;;;;;;10.85;100.00;102864.06;5092781;28;20190;-76
2023/05/31 06:02:53;;;;;;;12.10;6.88;;;;;;;11.05;100.00;102860.19;5092606;28;20100;-78
2023/05/31 06:05:25;;;;;;;16.73;7.32;;;;;;;11.27;100.00;102862.41;5093584;28;20488;-80
2023/05/31 06:07:50;;;;;;;;;;;;;;;11.43;100.00;102858.78;5094222;28;20040;-80
2023/05/31 06:10:16;;;;;;;16.52;7.25;;;;;;;11.62;100.00;102864.66;5093418;28;19966;-80
2023/05/31 06:12:41;;;;;;;16.77;6.57;;;;;;;11.86;100.00;102864.06;5093533;28;20082;-79
2023/05/31 06:15:07;;;;;;;11.18;7.30;;;;;;;12.03;100.00;102854.16;5092801;28;20105;-82
2023/05/31 06:17:32;;;;;;;12.10;7.05;;;;;;;12.12;100.00;102857.09;5074863;28;20064;-75
2023/05/31 06:19:58;;;;;;;10.73;6.47;;;;;;;12.26;100.00;102863.34;5075004;28;20032;-75
2023/05/31 06:22:23;;;;;;;15.40;7.00;;;;;;;12.44;100.00;102858.59;5093525;28;20024;-78
2023/05/31 06:24:49;;;;;;;14.85;7.15;;;;;;;12.61;100.00;102857.47;5093171;28;20032;-81
2023/05/31 06:27:14;;;;;;;15.32;7.22;;;;;;;12.85;100.00;102855.81;5093131;28;20027;-80
2023/05/31 06:29:40;;;;;;;12.15;7.45;;;;;;;13.02;100.00;102849.28;5093126;28;20468;-81
2023/05/31 06:32:05;;;;;;;15.88;6.97;;;;;;;13.25;100.00;102857.53;5075428;28;20028;-80
2023/05/31 06:34:31;;;;;;;12.13;7.18;;;;;;;13.38;100.00;102858.41;5093206;28;20032;-79
2023/05/31 06:36:56;;;;;;;9.60;6.50;;;;;;;13.33;100.00;102855.19;5058734;28;20032;-79
2023/05/31 06:39:22;;;;;;;9.68;6.30;;;;;;;13.45;100.00;102852.63;5093103;28;20106;-80
2023/05/31 06:41:47;;;;;;;13.80;7.97;;;;;;;13.49;100.00;102854.13;5093113;28;20442;-79
2023/05/31 06:44:13;;;;;;;11.77;6.90;;;;;;;13.62;100.00;102859.44;5092763;28;20482;-81
2023/05/31 06:46:39;;;;;;;12.40;7.57;;;;;;;13.75;100.00;102853.09;5074540;28;20459;-80
2023/05/31 06:49:05;;;;;;;10.27;7.13;;;;;;;13.92;100.00;102851.03;5092277;28;20140;-80
2023/05/31 06:51:30;;;;;;;15.35;7.43;;;;;;;14.17;100.00;102847.41;5092953;28;20052;-80
2023/05/31 06:53:56;;;;;;;12.20;7.45;;;;;;;14.40;100.00;102853.69;5092826;28;20317;-88
2023/05/31 06:56:21;;;;;;;12.85;7.00;;;;;;;14.56;100.00;102844.53;5092347;28;20085;-78
2023/05/31 06:58:48;;;;;;;10.80;7.20;;;;;;;14.59;100.00;102852.31;5092228;28;20097;-80
2023/05/31 07:01:13;;;;;;;15.68;7.57;;;;;;;14.74;100.00;102850.34;5092407;28;20123;-78
2023/05/31 07:03:38;;;;;;;10.65;7.63;;;;;;;14.77;100.00;102844.72;5092262;28;20109;-78
2023/05/31 07:06:04;;;;;;;15.82;7.72;;;;;;;14.86;100.00;102846.69;5092379;28;20115;-82
2023/05/31 07:08:29;;;;;;;12.40;7.47;;;;;;;14.89;100.00;102849.13;5092275;28;20064;-77
2023/05/31 07:10:55;;;;;;;22.90;7.80;;;;;;;15.10;100.00;102849.28;5092535;28;20039;-79
2023/05/31 07:13:20;;;;;;;15.55;8.43;;;;;;;15.07;100.00;102843.34;5092229;28;20531;-80
2023/05/31 07:15:45;;;;;;;11.10;7.65;;;;;;;15.15;100.00;102838.22;5092248;28;20032;-76
2023/05/31 07:18:11;;;;;;;15.23;7.18;;;;;;;15.31;100.00;102836.03;5092157;28;20371;-74
2023/05/31 07:20:36;;;;;;;12.32;8.00;;;;;;;15.54;100.00;102837.84;5092518;28;20448;-77
2023/05/31 07:23:01;;;;;;;14.55;8.38;;;;;;;15.77;100.00;102839.53;5092692;28;20384;-76
2023/05/31 07:25:27;;;;;;;13.45;7.95;;;;;;;15.85;100.00;102838.94;5092934;28;20032;-77
2023/05/31 07:27:52;;;;;;;18.10;7.88;;;;;;;15.86;100.00;102838.81;5092280;28;20070;-75
2023/05/31 07:30:19;;;;;;;13.57;7.38;;;;;;;15.93;100.00;102827.56;5092483;28;20040;-75
2023/05/31 07:32:45;;;;;;;11.68;6.82;;;;;;;16.00;100.00;102829.63;5073718;28;20042;-74
2023/05/31 07:35:10;;;;;;;12.27;7.40;;;;;;;16.10;100.00;102827.03;5092100;28;20032;-74
2023/05/31 07:37:36;;;;;;;11.52;6.90;;;;;;;16.24;100.00;102819.66;5092334;28;20428;-73
2023/05/31 07:40:01;;;;;;;12.40;7.00;;;;;;;16.43;100.00;102827.88;5092195;28;20060;-74
2023/05/31 07:42:28;;;;;;;12.88;7.43;;;;;;;16.59;100.00;102824.75;5092398;28;20043;-74
2023/05/31 07:44:53;;;;;;;9.93;6.88;;;;;;;16.61;100.00;102830.00;5092167;28;20037;-75
2023/05/31 07:47:22;;;;;;;12.32;6.95;;;;;;;16.75;100.00;102830.53;5092194;28;20141;-76
2023/05/31 07:49:51;;;;;;;16.60;7.45;;;;;;;16.72;100.00;102832.63;5091797;28;20052;-77
2023/05/31 07:52:21;;;;;;;12.55;7.38;;;;;;;16.80;100.00;102826.59;5092558;28;20032;-75
2023/05/31 07:54:47;;;;;;;13.98;6.88;;;;;;;16.96;100.00;102812.69;5092816;28;20081;-75
2023/05/31 07:57:12;;;;;;;14.38;7.28;;;;;;;17.21;100.00;102819.47;5092345;28;20024;-74
2023/05/31 07:59:37;;;;;;;14.20;6.72;;;;;;;17.38;100.00;102815.31;5092945;28;20356;-75
2023/05/31 08:02:04;;;;;;;11.48;6.47;;;;;;;17.54;100.00;102815.66;5092244;28;20039;-77
2023/05/31 08:04:29;;;;;;;14.02;6.72;;;;;;;17.53;100.00;102821.16;5074503;28;20038;-80
2023/05/31 08:06:54;;;;;;;11.18;6.40;;;;;;;17.75;100.00;102815.56;5092858;28;20036;-73
2023/05/31 08:09:20;;;;;;;12.73;7.22;;;;;;;18.00;100.00;102818.72;5077473;28;20063;-74
2023/05/31 08:11:46;;;;;;;13.57;7.20;;;;;;;18.13;100.00;102815.75;5096010;28;20032;-74
2023/05/31 08:14:12;;;;;;;13.77;7.07;;;;;;;18.18;100.00;102815.34;5096201;28;20063;-75
2023/05/31 08:16:39;;;;;;;13.50;6.95;;;;;;;18.17;100.00;102808.25;5096096;28;20077;-75
2023/05/31 08:19:05;;;;;;;9.00;5.60;;;;;;;18.40;100.00;102811.50;5095737;28;20382;-77
2023/05/31 08:21:31;;;;;;;15.27;6.10;;;;;;;18.54;100.00;102807.53;5096657;28;20332;-73
2023/05/31 08:23:57;;;;;;;15.75;6.35;;;;;;;18.61;100.00;102804.09;5095926;28;20491;-72
2023/05/31 08:26:23;;;;;;;11.40;5.80;;;;;;;18.59;100.00;102808.78;5095814;28;20115;-73
2023/05/31 08:28:49;;;;;;;14.95;6.40;;;;;;;18.68;100.00;102805.22;5095720;28;20066;-71
2023/05/31 08:31:14;;;;;;;10.20;6.75;;;;;;;18.80;100.00;102808.59;5077770;28;20395;-71
2023/05/31 08:33:53;;;;;;;13.38;6.82;;;;;;;18.92;100.00;102803.91;5077769;28;20036;-73
2023/05/31 08:36:18;;;;;;;13.45;6.40;;;;;;;19.07;100.00;102801.59;5095288;28;20028;-74
2023/05/31 08:38:43;;;;;;;12.48;6.35;;;;;;;19.23;100.00;102800.09;5095546;28;20078;-75
2023/05/31 08:41:09;;;;;;;11.48;5.95;;;;;;;19.43;100.00;102804.41;5095556;28;20034;-75
2023/05/31 08:43:35;;;;;;;10.23;6.47;;;;;;;19.39;100.00;102792.22;5095409;28;20039;-75
2023/05/31 08:46:05;;;;;;;10.82;6.05;;;;;;;19.70;100.00;102795.44;5095542;28;20097;-74
2023/05/31 08:48:38;;;;;;;10.32;5.72;;;;;;;19.97;100.00;102791.00;5095621;28;20036;-76
2023/05/31 08:51:06;;;;;;;11.82;5.93;;;;;;;20.16;100.00;102795.41;5095684;28;20380;-76
2023/05/31 08:53:33;;;;;;;11.27;5.90;;;;;;;20.43;100.00;102788.22;5095102;28;20044;-75
2023/05/31 08:56:02;;;;;;;14.98;6.40;;;;;;;20.63;100.00;102788.88;5095161;28;20533;-76
2023/05/31 08:58:29;;;;;;;12.63;6.38;;;;;;;20.92;98.56;102799.38;5094898;28;20032;-76
2023/05/31 09:00:55;;;;;;;14.27;6.70;;;;;;;21.25;97.71;102791.44;5095234;28;20031;-76
2023/05/31 09:03:22;;;;;;;12.75;5.90;;;;;;;21.43;92.40;102796.75;5077196;28;20131;-77
2023/05/31 09:05:48;;;;;;;9.48;6.18;;;;;;;21.78;90.11;102788.56;5076969;28;20036;-75
2023/05/31 09:08:14;;;;;;;21.48;6.30;;;;;;;22.09;91.96;102786.06;5095476;28;20036;-75
2023/05/31 09:10:40;;;;;;;8.15;5.72;;;;;;;22.54;84.57;102779.31;5095490;28;20444;-75
2023/05/31 09:13:06;;;;;;;13.65;6.18;;;;;;;23.03;75.15;102786.47;5094929;28;20038;-75
2023/05/31 09:15:34;;;;;;;11.65;5.40;;;;;;;23.09;72.96;102786.81;5094549;28;20106;-75
2023/05/31 09:18:15;;;;;;;11.15;5.22;;;;;;;23.47;66.04;102781.56;5093941;28;20121;-75
2023/05/31 09:20:41;;;;;;;11.55;6.00;;;;;;;23.76;65.24;102778.16;5094676;28;20032;-74
2023/05/31 09:23:08;;;;;;;10.60;5.43;;;;;;;24.03;67.76;102781.41;5095034;28;20082;-76
2023/05/31 09:25:51;;;;;;;15.85;6.40;;;;;;;24.15;64.58;102779.94;5076306;28;20423;-76
2023/05/31 09:28:18;;;;;;;12.77;6.25;;;;;;;23.85;63.35;102771.66;5094033;28;20128;-76
2023/05/31 09:30:44;;;;;;;10.82;6.20;;;;;;;23.93;65.17;102768.91;5094451;28;20048;-74
2023/05/31 09:33:13;;;;;;;11.70;5.60;;;;;;;24.11;64.25;102765.88;5094747;28;20526;-74
2023/05/31 09:35:56;;;;;;;10.50;5.68;;;;;;;24.21;65.00;102764.75;5094334;28;20108;-75
2023/05/31 09:38:32;;;;;;;13.70;5.70;;;;;;;24.07;67.22;102750.94;5094499;28;20110;-76
2023/05/31 09:41:12;;;;;;;8.82;5.10;;;;;;;24.20;63.57;102763.06;5094652;28;20085;-75
2023/05/31 09:43:41;;;;;;;11.25;5.90;;;;;;;24.50;63.61;102758.53;5094219;28;20107;-77
2023/05/31 09:46:14;;;;;;;10.45;5.38;;;;;;;24.26;60.53;102763.19;5094187;28;20059;-75
2023/05/31 09:48:40;;;;;;;11.98;5.40;;;;;;;23.97;64.62;102766.66;5094073;28;20608;-75
2023/05/31 09:51:08;;;;;;;12.88;5.45;;;;;;;24.18;62.52;102759.69;5094087;28;20060;-75
2023/05/31 09:53:44;;;;;;;15.45;5.82;;;;;;;24.35;66.97;102755.81;5093777;28;20080;-76
2023/05/31 09:56:21;;;;;;;14.20;5.38;;;;;;;24.60;61.39;102761.00;5075551;28;20028;-75
2023/05/31 09:58:48;;;;;;;12.80;6.00;;;;;;;23.99;63.83;102759.19;5093367;28;20028;-75
2023/05/31 10:01:15;;;;;;;10.10;5.72;;;;;;;24.10;64.49;102760.63;5093946;28;20040;-76
2023/05/31 10:03:42;;;;;;;8.73;5.47;;;;;;;24.06;63.76;102756.56;5094805;28;20036;-75
2023/05/31 10:06:07;;;;;;;13.70;5.32;;;;;;;23.87;62.80;102757.91;5094598;28;20144;-77
2023/05/31 10:08:33;;;;;;;12.15;5.60;;;;;;;24.07;66.60;102755.53;5094437;28;20115;-75
2023/05/31 10:11:00;;;;;;;11.82;5.88;;;;;;;24.32;60.01;102752.59;5095091;28;20074;-76
2023/05/31 10:13:30;;;;;;;12.07;5.80;;;;;;;24.38;64.13;102754.56;5095333;28;20100;-76
2023/05/31 10:16:00;;;;;;;18.23;5.50;;;;;;;24.53;64.11;102751.88;5093711;28;20039;-76
2023/05/31 10:18:30;;;;;;;13.75;5.90;;;;;;;24.59;60.88;102743.84;5093807;28;20471;-75
2023/05/31 10:21:14;;;;;;;14.48;5.18;;;;;;;24.81;63.97;102746.66;5093946;28;20036;-75
2023/05/31 10:23:49;;;;;;;10.30;5.65;;;;;;;25.13;60.61;102756.31;5092975;28;20429;-73
2023/05/31 10:26:20;;;;;;;9.73;5.88;;;;;;;25.20;59.71;102744.66;5093249;28;20063;-74
2023/05/31 10:28:59;;;;;;;9.43;5.35;;;;;;;25.51;55.94;102730.78;5075369;28;20032;-74
2023/05/31 10:31:51;;;;;;;11.88;5.32;;;;;;;25.87;55.42;102738.91;5092155;28;20032;-73
2023/05/31 10:34:23;;;;;;;9.82;5.05;;;;;;;26.16;52.61;102734.34;5075297;28;20436;-73
2023/05/31 10:36:53;;;;;;;11.85;5.15;;;;;;;26.45;53.17;102728.88;5093402;28;20039;-75
2023/05/31 10:39:22;;;;;;;13.65;5.75;;;;;;;26.49;53.29;102730.19;5075188;28;20435;-74
2023/05/31 10:41:57;;;;;;;15.73;5.57;;;;;;;26.53;50.87;102728.75;5092812;28;20067;-73
2023/05/31 10:44:33;;;;;;;9.38;5.28;;;;;;;25.94;51.46;102727.22;5092880;28;20028;-75
2023/05/31 10:47:04;;;;;;;8.95;5.13;;;;;;;26.64;50.93;102725.44;5092672;28;20064;-75
2023/05/31 10:49:33;;;;;;;10.90;5.53;;;;;;;26.82;48.01;102730.41;5092591;28;20028;-75
2023/05/31 10:52:04;;;;;;;13.45;5.10;;;;;;;27.29;49.77;102722.41;5092923;28;20097;-75
2023/05/31 10:54:31;;;;;;;;;;;;;;;27.08;46.59;102717.91;5075667;28;20036;-76
2023/05/31 10:56:57;;;;;;;11.13;4.82;;;;;;;27.39;47.18;102719.28;5092241;28;19958;-75
2023/05/31 10:59:25;;;;;;;11.52;5.15;;;;;;;27.78;44.43;102718.53;5092362;28;20028;-74
2023/05/31 11:01:51;;;;;;;9.30;5.43;;;;;;;27.99;45.27;102719.38;5092665;28;20038;-75
2023/05/31 11:04:24;;;;;;;11.50;5.38;;;;;;;27.79;45.53;102717.44;5092514;28;20375;-75
2023/05/31 11:07:11;;;;;;;12.52;4.70;;;;;;;28.01;44.01;102711.00;5092469;28;20032;-75
2023/05/31 11:09:39;;;;;;;12.45;5.63;;;;;;;28.26;42.63;102700.19;5093142;28;20115;-77
2023/05/31 11:12:05;;;;;;;12.27;5.10;;;;;;;27.78;45.51;102704.00;5092875;28;20448;-76
2023/05/31 11:14:31;;;;;;;11.48;4.95;;;;;;;28.32;43.39;102693.91;5092465;28;20082;-75
2023/05/31 11:16:57;;;;;;;9.27;4.20;;;;;;;29.05;42.22;102695.53;5092739;28;20039;-74